Time;durP1;ratioP1;P1;durP2;ratioP2;P2;SDS_P1;SDS_P2;PMS_P1;PMS_P2;Temp;Humidity;BMP_temperature;BMP_pressure;BME280_temperature;BME280_humidity;BME280_pressure;Samples;Min_cycle;Max_cycle;Signal;HPM_P1;HPM_P2
2022/12/08 00:01:08;;;;;;;23.40;12.40;;;;;;;4.43;89.81;100738.50;5041418;28;20043;-61
2022/12/08 00:03:34;;;;;;;18.58;11.25;;;;;;;4.41;90.20;100733.38;5029998;28;20033;-61
2022/12/08 00:11:29;;;;;;;21.23;11.95;;;;;;;4.40;90.54;100730.78;5039764;28;20512;-61
2022/12/08 00:13:55;;;;;;;15.93;10.63;;;;;;;4.39;91.14;100726.50;5028654;28;20851;-61
2022/12/08 00:16:20;;;;;;;15.82;11.25;;;;;;;4.40;90.91;100728.22;5028446;28;20087;-62
2022/12/08 00:18:46;;;;;;;18.92;11.00;;;;;;;4.40;91.09;100723.09;5041856;28;20120;-61
2022/12/08 00:21:11;;;;;;;19.95;12.30;;;;;;;4.40;90.52;100723.09;5044884;28;20033;-61
2022/12/08 00:23:36;;;;;;;18.08;11.13;;;;;;;4.39;90.54;100722.22;5049851;28;20471;-61
2022/12/08 00:26:03;;;;;;;17.52;10.52;;;;;;;4.39;90.83;100722.22;5048651;28;20051;-61
2022/12/08 00:28:30;;;;;;;17.27;10.35;;;;;;;4.39;90.78;100706.03;5048324;28;20701;-61
2022/12/08 00:30:55;;;;;;;19.02;11.20;;;;;;;4.38;91.08;100705.16;5060874;28;20041;-60
2022/12/08 00:33:20;;;;;;;16.38;8.80;;;;;;;4.36;91.12;100696.59;5061099;28;20036;-61
2022/12/08 00:35:46;;;;;;;15.57;9.70;;;;;;;4.34;91.32;100695.72;5060973;28;20021;-61
2022/12/08 00:38:11;;;;;;;19.75;11.10;;;;;;;4.33;91.00;100704.22;5048236;28;20118;-61
2022/12/08 00:40:36;;;;;;;19.13;10.80;;;;;;;4.32;91.14;100701.66;5044659;28;20041;-61
2022/12/08 00:43:02;;;;;;;15.73;10.88;;;;;;;4.32;91.40;100704.22;5044079;28;20502;-61
2022/12/08 00:45:27;;;;;;;17.27;11.27;;;;;;;4.31;90.93;100694.81;5051761;28;20036;-61
2022/12/08 00:47:53;;;;;;;15.55;10.45;;;;;;;4.32;91.14;100691.41;5065835;28;20056;-60
2022/12/08 00:50:18;;;;;;;16.75;10.93;;;;;;;4.31;91.82;100688.00;5052180;28;20549;-61
2022/12/08 00:52:43;;;;;;;16.25;10.98;;;;;;;4.32;91.45;100686.31;5065183;28;20032;-61
2022/12/08 00:55:09;;;;;;;15.90;10.23;;;;;;;4.31;91.24;100679.44;5060649;28;20036;-61
2022/12/08 00:57:34;;;;;;;24.05;11.95;;;;;;;4.30;91.88;100680.31;5065311;28;20417;-61
2022/12/08 00:59:59;;;;;;;20.55;10.05;;;;;;;4.30;91.42;100677.75;5064425;28;20036;-61
2022/12/08 01:02:25;;;;;;;19.85;11.05;;;;;;;4.25;91.42;100675.09;5065345;28;20559;-61
2022/12/08 01:04:50;;;;;;;15.80;10.70;;;;;;;4.26;91.34;100673.41;5063459;28;20043;-61
2022/12/08 01:07:16;;;;;;;18.48;9.90;;;;;;;4.25;91.29;100670.00;5047276;28;20031;-61
2022/12/08 01:09:41;;;;;;;17.30;10.15;;;;;;;4.24;91.76;100670.81;5050620;28;20119;-61
2022/12/08 01:12:07;;;;;;;14.23;9.52;;;;;;;4.25;91.32;100669.13;5064967;28;20384;-61
2022/12/08 01:14:33;;;;;;;13.32;8.52;;;;;;;4.26;91.37;100671.72;5060570;28;20059;-61
2022/12/08 01:16:58;;;;;;;17.70;9.38;;;;;;;4.28;92.03;100671.72;5047563;28;20040;-61
2022/12/08 01:19:23;;;;;;;12.23;8.75;;;;;;;4.29;91.19;100670.91;5063786;28;20086;-67
2022/12/08 01:21:49;;;;;;;14.13;9.75;;;;;;;4.30;91.64;100672.63;5064604;28;20509;-66
2022/12/08 01:24:18;;;;;;;13.35;9.98;;;;;;;4.32;91.93;100670.94;5058255;28;20028;-66
2022/12/08 01:26:44;;;;;;;12.85;9.27;;;;;;;4.30;91.97;100670.91;5064950;28;20086;-66
2022/12/08 01:29:10;;;;;;;13.52;8.90;;;;;;;4.31;91.74;100679.44;5052826;28;20029;-67
2022/12/08 01:31:35;;;;;;;13.38;9.88;;;;;;;4.32;90.78;100681.19;5059324;28;20044;-67
2022/12/08 01:34:01;;;;;;;17.17;9.18;;;;;;;4.35;91.38;100678.66;5051157;28;20045;-67
2022/12/08 01:36:29;;;;;;;12.95;9.05;;;;;;;4.35;90.79;100676.97;5037445;28;20041;-67
2022/12/08 01:38:57;;;;;;;14.55;8.40;;;;;;;4.35;91.18;100679.53;5064320;28;20121;-67
2022/12/08 01:41:25;;;;;;;13.57;9.63;;;;;;;4.36;91.19;100678.69;5062593;28;20764;-67
2022/12/08 01:44:00;;;;;;;17.75;11.05;;;;;;;4.36;91.37;100670.16;5064294;28;20054;-67
2022/12/08 01:46:27;;;;;;;12.40;9.95;;;;;;;4.35;90.79;100671.88;5063716;28;20044;-67
2022/12/08 01:49:01;;;;;;;15.75;8.48;;;;;;;4.37;90.92;100674.44;5062518;28;20044;-62
2022/12/08 01:51:27;;;;;;;11.95;8.52;;;;;;;4.38;90.89;100673.59;5061950;28;20198;-62
2022/12/08 01:53:53;;;;;;;15.68;9.30;;;;;;;4.41;90.68;100668.53;5064356;28;20067;-62
2022/12/08 01:56:31;;;;;;;15.38;9.48;;;;;;;4.43;90.72;100671.97;5063914;28;20180;-62
2022/12/08 01:58:57;;;;;;;14.63;8.23;;;;;;;4.44;91.46;100668.56;5064367;28;20035;-62
2022/12/08 02:01:23;;;;;;;14.00;8.82;;;;;;;4.46;90.37;100669.44;5062896;28;20040;-62
2022/12/08 02:03:57;;;;;;;12.23;7.68;;;;;;;4.47;90.88;100664.38;5063585;28;20032;-62
2022/12/08 02:06:24;;;;;;;11.02;7.82;;;;;;;4.47;91.30;100659.25;5063087;28;21582;-62
2022/12/08 02:08:50;;;;;;;13.23;7.95;;;;;;;4.48;90.84;100654.97;5051407;28;20041;-62
2022/12/08 02:11:16;;;;;;;12.60;7.35;;;;;;;4.47;90.44;100660.94;5042547;28;20068;-62
2022/12/08 02:13:44;;;;;;;15.50;9.00;;;;;;;4.47;90.52;100651.56;5043906;28;20413;-63
2022/12/08 02:16:25;;;;;;;11.75;8.07;;;;;;;4.47;90.20;100651.56;5043332;28;20128;-62
2022/12/08 02:18:56;;;;;;;13.35;7.88;;;;;;;4.46;90.04;100647.28;5062496;28;20476;-62
2022/12/08 02:21:28;;;;;;;12.18;7.97;;;;;;;4.50;89.81;100651.63;5062772;28;20653;-62
2022/12/08 02:24:25;;;;;;;10.32;6.80;;;;;;;4.51;90.75;100644.78;5053773;28;20028;-62
2022/12/08 02:27:33;;;;;;;14.48;8.20;;;;;;;4.52;90.08;100639.69;5060819;28;20097;-62
2022/12/08 02:30:39;;;;;;;13.63;8.07;;;;;;;4.55;90.32;100646.53;5029128;28;20107;-63
2022/12/08 02:33:23;;;;;;;13.55;9.60;;;;;;;4.54;89.72;100638.00;5037360;28;20028;-62
2022/12/08 02:35:54;;;;;;;13.30;8.68;;;;;;;4.55;89.44;100636.31;5062586;28;20036;-63
2022/12/08 02:38:25;;;;;;;17.02;8.82;;;;;;;4.55;89.40;100632.06;5033625;28;20033;-62
2022/12/08 02:41:16;;;;;;;10.57;6.90;;;;;;;4.56;89.79;100626.09;5038730;28;20108;-62
2022/12/08 02:43:47;;;;;;;12.02;7.40;;;;;;;4.57;89.39;100627.81;5059846;28;20056;-62
2022/12/08 02:46:20;;;;;;;13.82;8.05;;;;;;;4.60;88.76;100621.88;5062343;28;20044;-62
2022/12/08 02:48:46;;;;;;;14.38;7.45;;;;;;;4.61;88.35;100616.78;5062831;28;20037;-62
2022/12/08 02:51:12;;;;;;;11.32;7.43;;;;;;;4.64;89.02;100615.94;5061063;28;20103;-62
2022/12/08 02:53:37;;;;;;;12.82;6.40;;;;;;;4.66;88.67;100606.59;5055682;28;20119;-62
2022/12/08 02:56:21;;;;;;;12.27;7.03;;;;;;;4.69;88.67;100611.75;5042724;28;20128;-62
2022/12/08 02:59:24;;;;;;;13.20;7.22;;;;;;;4.71;88.47;100607.53;5052279;28;20036;-62
2022/12/08 03:02:20;;;;;;;12.00;7.40;;;;;;;4.73;87.95;100599.84;5059623;28;20040;-63
2022/12/08 03:04:54;;;;;;;11.38;6.68;;;;;;;4.73;88.52;100587.91;5065345;28;20032;-62
2022/12/08 03:07:37;;;;;;;10.95;7.28;;;;;;;4.76;87.96;100593.06;5065170;28;20078;-62
2022/12/08 03:10:09;;;;;;;10.63;6.72;;;;;;;4.77;88.51;100592.25;5063565;28;20044;-63
2022/12/08 03:12:42;;;;;;;11.30;7.13;;;;;;;4.78;88.16;100586.25;5064745;28;20041;-61
2022/12/08 03:15:15;;;;;;;11.82;7.43;;;;;;;4.79;88.82;100593.09;5065190;28;20047;-61
2022/12/08 03:17:46;;;;;;;10.73;6.90;;;;;;;4.78;88.22;100582.84;5061203;28;20524;-63
2022/12/08 03:20:15;;;;;;;9.00;7.78;;;;;;;4.79;88.61;100582.88;5062259;28;20043;-62
2022/12/08 03:22:43;;;;;;;10.82;7.00;;;;;;;4.77;88.43;100576.88;5049341;28;20029;-62
2022/12/08 03:25:11;;;;;;;11.65;7.20;;;;;;;4.77;88.24;100573.44;5061926;28;20032;-63
2022/12/08 03:27:36;;;;;;;10.02;6.65;;;;;;;4.76;88.54;100572.59;5059316;28;20033;-63
2022/12/08 03:30:03;;;;;;;10.27;6.57;;;;;;;4.78;89.00;100564.91;5044987;28;20537;-62
2022/12/08 03:32:53;;;;;;;13.00;7.00;;;;;;;4.77;89.03;100568.34;5045177;28;20056;-63
2022/12/08 03:35:24;;;;;;;11.50;7.15;;;;;;;4.77;88.51;100564.06;5064112;28;20033;-62
2022/12/08 03:37:49;;;;;;;8.95;5.97;;;;;;;4.77;88.17;100563.22;5054970;28;20842;-62
2022/12/08 03:40:18;;;;;;;9.88;5.72;;;;;;;4.77;88.84;100556.41;5044578;28;20037;-62
2022/12/08 03:42:44;;;;;;;9.80;6.43;;;;;;;4.76;89.18;100551.25;5044459;28;20045;-62
2022/12/08 03:45:09;;;;;;;9.38;6.28;;;;;;;4.76;89.39;100549.53;5044557;28;20516;-62
2022/12/08 03:47:35;;;;;;;8.05;6.15;;;;;;;4.75;88.86;100546.94;5045152;28;20108;-62
2022/12/08 03:50:00;;;;;;;9.73;6.10;;;;;;;4.75;89.31;100550.38;5047548;28;20644;-62
2022/12/08 03:52:26;;;;;;;12.02;6.50;;;;;;;4.73;89.00;100538.41;5054243;28;20087;-62
2022/12/08 03:54:51;;;;;;;8.20;5.75;;;;;;;4.72;89.23;100541.78;5063177;28;20063;-62
2022/12/08 03:57:17;;;;;;;10.85;6.75;;;;;;;4.70;89.72;100533.25;5058553;28;20038;-62
2022/12/08 03:59:42;;;;;;;7.35;6.07;;;;;;;4.68;90.58;100536.63;5041849;28;20041;-62
2022/12/08 04:02:07;;;;;;;10.13;6.15;;;;;;;4.68;91.05;100540.94;5043241;28;20040;-62
2022/12/08 04:04:33;;;;;;;8.52;6.05;;;;;;;4.65;90.34;100533.22;5038135;28;20086;-62
2022/12/08 04:06:58;;;;;;;9.32;6.45;;;;;;;4.65;91.37;100535.78;5034832;28;20095;-63
2022/12/08 04:09:23;;;;;;;14.32;5.75;;;;;;;4.64;91.00;100528.91;5057693;28;20127;-63
2022/12/08 04:11:52;;;;;;;10.57;5.93;;;;;;;4.63;91.55;100522.06;5063502;28;20093;-62
2022/12/08 04:14:17;;;;;;;8.98;5.45;;;;;;;4.62;91.74;100521.25;5063983;28;20051;-62
2022/12/08 04:16:42;;;;;;;8.45;5.72;;;;;;;4.62;91.56;100521.25;5064811;28;20036;-62
2022/12/08 04:19:08;;;;;;;10.27;5.68;;;;;;;4.62;92.40;100517.81;5061992;28;20866;-62
2022/12/08 04:21:33;;;;;;;9.60;5.80;;;;;;;4.61;91.71;100514.38;5051271;28;20032;-62
2022/12/08 04:23:58;;;;;;;10.23;5.53;;;;;;;4.62;92.16;100513.56;5062258;28;20090;-62
2022/12/08 04:26:24;;;;;;;8.93;5.60;;;;;;;4.62;91.91;100513.56;5065987;28;20028;-63
2022/12/08 04:28:53;;;;;;;12.48;6.00;;;;;;;4.62;92.41;100513.56;5058833;28;20123;-62
2022/12/08 04:31:18;;;;;;;8.88;5.45;;;;;;;4.62;92.70;100513.56;5052821;28;20091;-61
2022/12/08 04:33:44;;;;;;;7.00;5.55;;;;;;;4.63;92.19;100514.41;5058968;28;20124;-62
2022/12/08 04:36:09;;;;;;;9.73;4.97;;;;;;;4.63;92.82;100505.03;5043270;28;20056;-62
2022/12/08 04:38:35;;;;;;;11.10;6.07;;;;;;;4.64;92.22;100505.88;5044072;28;20123;-62
2022/12/08 04:41:01;;;;;;;9.55;5.68;;;;;;;4.63;92.52;100505.03;5032515;28;20037;-62
2022/12/08 04:43:26;;;;;;;8.73;5.88;;;;;;;4.65;92.26;100517.84;5045746;28;20071;-62
2022/12/08 04:45:52;;;;;;;8.77;6.30;;;;;;;4.62;92.10;100508.44;5065251;28;20044;-62
2022/12/08 04:48:17;;;;;;;10.35;5.03;;;;;;;4.63;91.75;100511.84;5065096;28;20028;-62
2022/12/08 04:50:43;;;;;;;9.68;5.97;;;;;;;4.63;92.20;100511.84;5055375;28;20094;-62
2022/12/08 04:53:10;;;;;;;10.82;5.20;;;;;;;4.63;91.83;100509.28;5057338;28;20693;-63
2022/12/08 04:55:40;;;;;;;12.15;6.47;;;;;;;4.60;91.71;100517.78;5065471;28;20068;-62
2022/12/08 04:58:05;;;;;;;13.98;8.13;;;;;;;4.60;92.44;100504.97;5055910;28;20033;-62
2022/12/08 05:00:31;;;;;;;9.75;5.70;;;;;;;4.57;92.43;100502.38;5044267;28;20596;-62
2022/12/08 05:02:56;;;;;;;9.32;5.78;;;;;;;4.54;91.75;100510.03;5045277;28;20021;-62
2022/12/08 05:05:24;;;;;;;9.82;6.75;;;;;;;4.53;91.52;100505.78;5045027;28;20041;-62
2022/12/08 05:07:50;;;;;;;15.00;5.82;;;;;;;4.52;92.01;100501.50;5039916;28;20148;-63
2022/12/08 05:10:16;;;;;;;9.63;5.60;;;;;;;4.53;92.41;100504.91;5035767;28;20124;-64
2022/12/08 05:12:41;;;;;;;12.40;7.13;;;;;;;4.51;92.66;100502.31;5059394;28;20033;-63
2022/12/08 05:15:07;;;;;;;13.90;7.20;;;;;;;4.48;92.25;100502.28;5057384;28;20029;-62
2022/12/08 05:17:32;;;;;;;11.50;7.45;;;;;;;4.47;92.34;100489.47;5053814;28;20108;-62
2022/12/08 05:19:57;;;;;;;13.27;7.45;;;;;;;4.47;92.41;100498.03;5064401;28;20146;-62
2022/12/08 05:22:23;;;;;;;13.82;8.25;;;;;;;4.46;92.52;100496.28;5064535;28;20135;-62
2022/12/08 05:24:48;;;;;;;13.63;8.05;;;;;;;4.48;93.21;100488.63;5058812;28;20440;-62
2022/12/08 05:27:14;;;;;;;14.35;7.53;;;;;;;4.47;92.41;100487.78;5064607;28;20610;-62
2022/12/08 05:29:40;;;;;;;10.80;6.68;;;;;;;4.49;92.33;100488.66;5064357;28;20036;-63
2022/12/08 05:32:05;;;;;;;11.90;7.43;;;;;;;4.51;92.83;100478.41;5054152;28;20029;-62
2022/12/08 05:34:30;;;;;;;11.88;7.47;;;;;;;4.51;93.07;100484.41;5060791;28;20056;-63
2022/12/08 05:36:56;;;;;;;17.33;8.18;;;;;;;4.52;92.63;100478.47;5062254;28;20040;-63
2022/12/08 05:39:21;;;;;;;14.32;8.43;;;;;;;4.52;92.81;100478.47;5063617;28;20071;-62
2022/12/08 05:41:47;;;;;;;14.07;8.45;;;;;;;4.50;92.78;100472.47;5062810;28;20032;-63
2022/12/08 05:44:12;;;;;;;14.60;8.93;;;;;;;4.49;93.30;100473.31;5063899;28;20537;-63
2022/12/08 05:46:37;;;;;;;16.98;8.98;;;;;;;4.50;92.59;100472.47;5063459;28;20142;-62
2022/12/08 05:49:03;;;;;;;17.70;9.20;;;;;;;4.50;92.88;100467.34;5064060;28;20131;-63
2022/12/08 05:51:29;;;;;;;18.38;9.98;;;;;;;4.49;91.94;100457.94;5053771;28;20056;-62
2022/12/08 05:53:55;;;;;;;17.98;10.20;;;;;;;4.52;91.53;100467.34;5060835;28;20086;-62
2022/12/08 05:56:22;;;;;;;19.80;10.65;;;;;;;4.51;92.02;100466.50;5064318;28;20072;-62
2022/12/08 05:58:48;;;;;;;17.52;9.48;;;;;;;4.55;91.13;100464.81;5064654;28;20479;-62
2022/12/08 06:01:28;;;;;;;17.45;9.77;;;;;;;4.57;91.08;100463.13;5063571;28;20045;-63
2022/12/08 06:03:54;;;;;;;18.23;9.93;;;;;;;4.59;91.58;100458.91;5064059;28;20086;-63
2022/12/08 06:06:20;;;;;;;18.90;9.43;;;;;;;4.60;90.65;100461.47;5053825;28;20988;-64
2022/12/08 06:08:46;;;;;;;20.30;10.63;;;;;;;4.62;90.61;100461.50;5059775;28;20041;-63
2022/12/08 06:11:26;;;;;;;19.02;10.55;;;;;;;4.63;90.86;100453.81;5063052;28;20050;-63
2022/12/08 06:13:52;;;;;;;18.77;10.50;;;;;;;4.66;90.93;100463.22;5038957;28;20120;-63
2022/12/08 06:16:19;;;;;;;20.60;10.75;;;;;;;4.68;90.71;100460.69;5033930;28;20486;-63
2022/12/08 06:18:44;;;;;;;20.70;11.57;;;;;;;4.66;90.93;100455.56;5061472;28;20037;-62
2022/12/08 06:21:11;;;;;;;17.50;10.68;;;;;;;4.64;90.75;100467.50;5062720;28;20442;-62
2022/12/08 06:23:37;;;;;;;21.27;11.27;;;;;;;4.62;91.33;100459.81;5060032;28;20032;-63
2022/12/08 06:26:06;;;;;;;15.63;10.13;;;;;;;4.62;90.11;100459.81;5063391;28;20036;-63
2022/12/08 06:28:32;;;;;;;18.65;11.00;;;;;;;4.62;90.16;100459.81;5056829;28;20037;-63
2022/12/08 06:30:58;;;;;;;15.68;9.45;;;;;;;4.62;89.85;100459.81;5056397;28;20051;-63
2022/12/08 06:33:24;;;;;;;19.60;10.15;;;;;;;4.63;89.53;100465.75;5061196;28;20865;-62
2022/12/08 06:35:51;;;;;;;19.83;10.20;;;;;;;4.63;89.17;100455.53;5048919;28;20052;-63
2022/12/08 06:38:16;;;;;;;15.25;9.35;;;;;;;4.65;88.84;100459.84;5043100;28;20060;-63
2022/12/08 06:40:41;;;;;;;15.57;9.55;;;;;;;4.63;88.53;100458.94;5041167;28;20505;-63
2022/12/08 06:43:07;;;;;;;17.10;9.30;;;;;;;4.63;88.76;100458.94;5041560;28;20041;-63
2022/12/08 06:45:32;;;;;;;17.38;9.27;;;;;;;4.61;88.95;100463.19;5042778;28;20056;-63
2022/12/08 06:47:57;;;;;;;16.92;9.30;;;;;;;4.61;88.55;100460.63;5043054;28;20044;-63
2022/12/08 06:50:23;;;;;;;23.38;10.30;;;;;;;4.62;89.97;100462.38;5049462;28;20024;-63
2022/12/08 06:52:48;;;;;;;15.43;9.50;;;;;;;4.62;89.06;100462.38;5055842;28;20032;-63
2022/12/08 06:55:14;;;;;;;19.00;9.85;;;;;;;4.64;89.50;100454.69;5048927;28;20120;-59
2022/12/08 06:57:39;;;;;;;20.77;10.10;;;;;;;4.65;89.27;100466.66;5043061;28;20127;-60
2022/12/08 07:00:06;;;;;;;19.77;10.35;;;;;;;4.66;88.43;100461.53;5042066;28;20506;-61
2022/12/08 07:02:32;;;;;;;16.17;10.43;;;;;;;4.66;89.34;100465.78;5042940;28;20118;-61
2022/12/08 07:04:57;;;;;;;18.00;10.40;;;;;;;4.63;89.31;100464.06;5042488;28;20252;-61
2022/12/08 07:07:22;;;;;;;18.83;9.98;;;;;;;4.62;89.11;100462.38;5055241;28;20072;-61
2022/12/08 07:09:48;;;;;;;23.33;10.02;;;;;;;4.63;89.15;100463.19;5062002;28;20063;-61
2022/12/08 07:12:13;;;;;;;17.98;10.27;;;;;;;4.62;89.24;100470.06;5055548;28;20033;-66
2022/12/08 07:14:38;;;;;;;15.38;9.65;;;;;;;4.62;89.13;100466.63;5042940;28;20029;-67
2022/12/08 07:17:04;;;;;;;14.80;9.90;;;;;;;4.62;89.62;100471.75;5045094;28;20523;-63
2022/12/08 07:19:30;;;;;;;16.00;9.35;;;;;;;4.61;89.33;100473.44;5062108;28;20103;-63
2022/12/08 07:21:55;;;;;;;18.27;9.65;;;;;;;4.61;89.47;100470.88;5062595;28;20040;-63
2022/12/08 07:24:20;;;;;;;18.85;10.13;;;;;;;4.63;90.00;100468.31;5056355;28;20045;-63
2022/12/08 07:26:46;;;;;;;20.73;9.98;;;;;;;4.65;89.38;100471.78;5063574;28;20040;-63
2022/12/08 07:29:11;;;;;;;17.17;9.60;;;;;;;4.66;90.18;100481.16;5061121;28;20198;-62
2022/12/08 07:31:37;;;;;;;15.52;8.23;;;;;;;4.67;89.46;100477.75;5062380;28;20036;-63
2022/12/08 07:34:02;;;;;;;15.10;8.80;;;;;;;4.68;89.19;100482.88;5062860;28;20509;-63
2022/12/08 07:36:28;;;;;;;18.42;8.70;;;;;;;4.68;89.49;100480.31;5047566;28;20777;-63
2022/12/08 07:38:53;;;;;;;19.40;8.65;;;;;;;4.70;89.54;100480.34;5063214;28;20036;-62
2022/12/08 07:41:22;;;;;;;19.85;9.20;;;;;;;4.70;88.99;100477.78;5059132;28;20040;-62
2022/12/08 07:43:48;;;;;;;16.65;9.02;;;;;;;4.73;89.18;100474.41;5062509;28;20136;-62
2022/12/08 07:46:15;;;;;;;13.30;8.38;;;;;;;4.71;88.96;100474.41;5063663;28;20568;-63
2022/12/08 07:48:41;;;;;;;15.48;8.43;;;;;;;4.71;88.15;100471.84;5069042;28;20131;-62
2022/12/08 07:51:07;;;;;;;14.05;7.90;;;;;;;4.73;87.56;100469.28;5056070;28;20115;-62
2022/12/08 07:53:33;;;;;;;14.38;8.52;;;;;;;4.73;87.99;100477.81;5069444;28;20032;-62
2022/12/08 07:55:59;;;;;;;13.85;8.18;;;;;;;4.76;88.08;100479.56;5049425;28;20410;-63
2022/12/08 07:58:26;;;;;;;14.55;7.85;;;;;;;4.77;87.96;100476.16;5049426;28;20117;-62
2022/12/08 08:00:51;;;;;;;18.67;8.60;;;;;;;4.77;87.47;100477.03;5048951;28;20468;-62
2022/12/08 08:03:17;;;;;;;12.75;7.90;;;;;;;4.77;86.86;100477.03;5048043;28;20561;-63
2022/12/08 08:05:48;;;;;;;14.18;8.13;;;;;;;4.78;86.47;100476.16;5066742;28;20521;-62
2022/12/08 08:08:13;;;;;;;19.52;9.20;;;;;;;4.80;87.46;100471.94;5049740;28;20041;-62
2022/12/08 08:10:39;;;;;;;20.13;9.57;;;;;;;4.81;86.90;100473.63;5042777;28;20063;-62
2022/12/08 08:13:04;;;;;;;19.58;9.68;;;;;;;4.83;86.84;100476.22;5049421;28;20037;-63
2022/12/08 08:15:29;;;;;;;17.50;9.80;;;;;;;4.82;86.87;100472.81;5049505;28;20806;-62
2022/12/08 08:17:55;;;;;;;17.05;10.38;;;;;;;4.85;86.72;100479.66;5049606;28;20116;-63
2022/12/08 08:20:20;;;;;;;21.50;10.77;;;;;;;4.85;87.25;100475.38;5067691;28;20036;-63
2022/12/08 08:22:48;;;;;;;16.67;9.55;;;;;;;4.87;86.99;100477.94;5035015;28;20045;-63
2022/12/08 08:25:14;;;;;;;16.15;9.55;;;;;;;4.89;86.63;100476.28;5056997;28;20036;-63
2022/12/08 08:27:40;;;;;;;19.48;11.35;;;;;;;4.90;85.85;100483.09;5062482;28;20728;-63
2022/12/08 08:30:08;;;;;;;14.68;10.07;;;;;;;4.92;86.21;100476.31;5041897;28;20037;-63
2022/12/08 08:32:35;;;;;;;21.73;10.82;;;;;;;4.91;86.02;100480.56;5063539;28;20114;-65
2022/12/08 08:35:01;;;;;;;17.55;10.35;;;;;;;4.95;85.68;100478.91;5068818;28;20040;-63
2022/12/08 08:37:27;;;;;;;18.58;11.05;;;;;;;4.97;85.86;100477.22;5067154;28;20040;-63
2022/12/08 08:39:52;;;;;;;20.58;10.75;;;;;;;5.01;85.82;100474.69;5068238;28;20581;-63
2022/12/08 08:42:18;;;;;;;24.88;11.02;;;;;;;5.03;85.72;100479.81;5067566;28;20036;-63
2022/12/08 08:44:44;;;;;;;20.38;11.48;;;;;;;5.05;85.95;100478.13;5069443;28;20047;-63
2022/12/08 08:47:09;;;;;;;24.95;11.25;;;;;;;5.08;85.43;100480.72;5069109;28;20408;-64
2022/12/08 08:49:35;;;;;;;17.33;10.55;;;;;;;5.11;85.84;100479.06;5068153;28;20032;-64
2022/12/08 08:52:02;;;;;;;17.08;10.93;;;;;;;5.16;85.36;100479.09;5055909;28;20563;-59
2022/12/08 08:54:28;;;;;;;15.73;10.60;;;;;;;5.22;85.62;100471.44;5060276;28;20076;-59
2022/12/08 08:56:55;;;;;;;21.45;10.10;;;;;;;5.24;84.77;100480.03;5049602;28;20033;-60
2022/12/08 08:59:20;;;;;;;20.27;10.52;;;;;;;5.31;84.64;100475.81;5052386;28;20029;-60
2022/12/08 09:01:46;;;;;;;15.50;10.52;;;;;;;5.35;84.46;100480.09;5056614;28;20044;-60
2022/12/08 09:04:11;;;;;;;15.98;9.82;;;;;;;5.37;83.12;100473.31;5054826;28;20045;-60
2022/12/08 09:06:37;;;;;;;15.13;10.15;;;;;;;5.38;84.00;100480.13;5045160;28;20044;-62
2022/12/08 09:09:02;;;;;;;19.23;9.60;;;;;;;5.38;82.59;100472.44;5037860;28;20118;-61
2022/12/08 09:11:28;;;;;;;14.57;9.15;;;;;;;5.38;82.50;100468.19;5045372;28;20638;-62
2022/12/08 09:13:54;;;;;;;15.10;9.65;;;;;;;5.40;82.41;100471.59;5045144;28;20037;-60
2022/12/08 09:16:20;;;;;;;15.13;8.35;;;;;;;5.43;82.89;100469.06;5044286;28;20128;-60
2022/12/08 09:18:48;;;;;;;18.27;9.60;;;;;;;5.51;83.15;100476.81;5052574;28;20024;-63
2022/12/08 09:21:19;;;;;;;16.70;9.10;;;;;;;5.50;82.79;100477.66;5056078;28;20115;-63
2022/12/08 09:23:45;;;;;;;16.38;8.02;;;;;;;5.51;81.77;100481.94;5061974;28;20036;-62
2022/12/08 09:26:10;;;;;;;14.02;8.10;;;;;;;5.55;81.86;100489.66;5064693;28;20044;-63
2022/12/08 09:28:36;;;;;;;18.92;8.10;;;;;;;5.58;81.92;100486.25;5064931;28;20033;-62
2022/12/08 09:31:02;;;;;;;14.88;8.23;;;;;;;5.52;81.26;100479.38;5063409;28;20037;-63
2022/12/08 09:33:28;;;;;;;11.00;7.57;;;;;;;5.51;81.21;100476.81;5064405;28;20879;-62
2022/12/08 09:35:53;;;;;;;17.30;7.53;;;;;;;5.47;80.98;100481.06;5065017;28;20060;-62
2022/12/08 09:38:19;;;;;;;10.57;5.65;;;;;;;5.46;80.80;100479.34;5063890;28;20043;-62
2022/12/08 09:40:49;;;;;;;12.48;5.93;;;;;;;5.46;80.39;100476.78;5063597;28;20036;-62
2022/12/08 09:43:52;;;;;;;8.35;5.63;;;;;;;5.48;80.70;100481.91;5064772;28;20752;-63
2022/12/08 09:46:19;;;;;;;8.50;3.97;;;;;;;5.52;80.08;100484.50;5064318;28;20086;-69
2022/12/08 09:48:54;;;;;;;6.53;3.33;;;;;;;5.52;80.13;100484.50;5064854;28;20032;-68
2022/12/08 09:51:20;;;;;;;;;;;;;;;5.54;79.17;100484.53;5055947;28;20099;-69
2022/12/08 09:54:07;;;;;;;8.98;3.65;;;;;;;5.56;79.26;100475.13;5058151;28;19925;-60
2022/12/08 09:56:35;;;;;;;8.15;5.13;;;;;;;5.51;79.69;100482.81;5051756;28;20045;-62
2022/12/08 09:59:16;;;;;;;10.48;6.35;;;;;;;5.41;80.29;100477.59;5045751;28;20114;-60
2022/12/08 10:01:42;;;;;;;10.95;5.93;;;;;;;5.42;80.60;100480.19;5063517;28;20498;-60
2022/12/08 10:04:31;;;;;;;11.55;6.65;;;;;;;5.37;81.15;100476.69;5063583;28;20081;-61
2022/12/08 10:07:17;;;;;;;7.88;5.63;;;;;;;5.31;80.07;100475.81;5063427;28;20047;-61
2022/12/08 10:10:16;;;;;;;9.05;5.68;;;;;;;5.27;81.05;100474.06;5050313;28;20033;-61
2022/12/08 10:13:21;;;;;;;10.25;5.40;;;;;;;5.25;81.32;100468.91;5054185;28;20040;-61
2022/12/08 10:15:52;;;;;;;8.45;5.50;;;;;;;5.29;81.03;100464.66;5052429;28;20039;-61
2022/12/08 10:18:24;;;;;;;9.65;5.97;;;;;;;5.31;82.22;100465.56;5059918;28;20082;-60
2022/12/08 10:20:53;;;;;;;11.02;6.70;;;;;;;5.33;82.43;100457.03;5053193;28;20490;-60
2022/12/08 10:23:30;;;;;;;11.95;6.35;;;;;;;5.31;82.51;100466.41;5045604;28;20033;-61
2022/12/08 10:25:58;;;;;;;11.63;6.28;;;;;;;5.32;83.02;100463.00;5047415;28;20037;-61
2022/12/08 10:28:27;;;;;;;10.88;6.13;;;;;;;5.32;82.22;100460.44;5039881;28;20132;-60
2022/12/08 10:30:53;;;;;;;12.73;6.50;;;;;;;5.33;83.02;100448.50;5036962;28;20110;-61
2022/12/08 10:33:20;;;;;;;11.57;6.63;;;;;;;5.33;82.55;100449.34;5043202;28;20045;-61
2022/12/08 10:35:55;;;;;;;10.60;6.28;;;;;;;5.35;81.92;100441.66;5031103;28;20057;-60
2022/12/08 10:38:30;;;;;;;12.43;7.35;;;;;;;5.34;81.63;100438.22;5034933;28;20411;-61
2022/12/08 10:41:09;;;;;;;11.18;6.80;;;;;;;5.34;80.68;100435.66;5023114;28;20041;-61
2022/12/08 10:43:41;;;;;;;9.73;6.45;;;;;;;5.35;80.55;100433.97;5036991;28;20041;-60
2022/12/08 10:46:26;;;;;;;11.00;6.82;;;;;;;5.42;80.63;100436.59;5043693;28;20033;-60
2022/12/08 10:49:08;;;;;;;12.25;6.50;;;;;;;5.49;80.58;100429.78;5043476;28;20037;-60
2022/12/08 10:51:36;;;;;;;11.63;6.35;;;;;;;5.54;80.38;100423.88;5053068;28;20087;-60
2022/12/08 10:54:02;;;;;;;12.82;7.35;;;;;;;5.60;80.51;100428.19;5055462;28;20714;-60
2022/12/08 10:56:29;;;;;;;12.20;6.70;;;;;;;5.69;80.35;100420.53;5063563;28;20052;-60
2022/12/08 10:59:18;;;;;;;16.17;6.53;;;;;;;5.72;79.92;100418.81;5063206;28;20504;-60
2022/12/08 11:01:48;;;;;;;10.20;6.30;;;;;;;5.67;78.85;100417.09;5062908;28;20221;-60
2022/12/08 11:04:37;;;;;;;11.90;6.75;;;;;;;5.60;79.67;100412.78;5061754;28;20025;-60
2022/12/08 11:07:10;;;;;;;10.15;6.82;;;;;;;5.62;79.26;100411.09;5059077;28;20123;-60
2022/12/08 11:09:47;;;;;;;12.25;6.93;;;;;;;5.65;80.27;100411.97;5055160;28;20405;-60
2022/12/08 11:12:15;;;;;;;11.63;6.88;;;;;;;5.66;79.47;100408.56;5059721;28;20157;-60
2022/12/08 11:14:44;;;;;;;10.43;6.30;;;;;;;5.68;79.62;100406.84;5028751;28;20068;-60
2022/12/08 11:17:22;;;;;;;9.60;6.00;;;;;;;5.75;79.54;100400.88;5029110;28;20049;-60
2022/12/08 11:20:17;;;;;;;10.88;6.55;;;;;;;5.80;79.77;100398.38;5037226;28;20383;-60
2022/12/08 11:22:45;;;;;;;13.85;7.55;;;;;;;5.88;79.25;100393.25;5042005;28;20123;-60
2022/12/08 11:25:19;;;;;;;13.85;7.32;;;;;;;5.90;79.88;100396.72;5054869;28;20111;-60
2022/12/08 11:27:47;;;;;;;11.98;6.65;;;;;;;5.97;80.18;100399.28;5059360;28;20565;-60
2022/12/08 11:30:16;;;;;;;13.30;7.38;;;;;;;5.93;79.31;100401.84;5050508;28;20082;-60
2022/12/08 11:32:47;;;;;;;15.23;7.70;;;;;;;6.00;79.60;100398.44;5061420;28;20028;-60
2022/12/08 11:35:37;;;;;;;12.30;6.65;;;;;;;6.06;79.23;100395.91;5041993;28;20048;-60
2022/12/08 11:38:23;;;;;;;13.30;6.45;;;;;;;6.11;79.15;100392.50;5042114;28;20044;-60